sensor_id;sensor_type;location;lat;lon;timestamp;P1;durP1;ratioP1;P2;durP2;ratioP2
39218;SDS011;24934;52.752;6.964;2022-10-16T00:01:05;13.90;;;12.60;;
39218;SDS011;24934;52.752;6.964;2022-10-16T00:03:32;13.20;;;11.87;;
39218;SDS011;24934;52.752;6.964;2022-10-16T00:05:58;12.47;;;11.27;;
39218;SDS011;24934;52.752;6.964;2022-10-16T00:08:25;13.83;;;12.43;;
39218;SDS011;24934;52.752;6.964;2022-10-16T00:10:51;14.00;;;12.70;;
39218;SDS011;24934;52.752;6.964;2022-10-16T00:13:16;13.00;;;11.70;;
39218;SDS011;24934;52.752;6.964;2022-10-16T00:15:43;13.33;;;12.03;;
39218;SDS011;24934;52.752;6.964;2022-10-16T00:18:09;13.53;;;12.13;;
39218;SDS011;24934;52.752;6.964;2022-10-16T00:20:35;13.38;;;12.13;;
39218;SDS011;24934;52.752;6.964;2022-10-16T00:23:02;12.80;;;11.23;;
39218;SDS011;24934;52.752;6.964;2022-10-16T00:25:28;14.90;;;13.23;;
39218;SDS011;24934;52.752;6.964;2022-10-16T00:27:54;12.85;;;11.60;;
39218;SDS011;24934;52.752;6.964;2022-10-16T00:30:20;13.32;;;11.88;;
39218;SDS011;24934;52.752;6.964;2022-10-16T00:32:52;13.93;;;11.98;;
39218;SDS011;24934;52.752;6.964;2022-10-16T00:35:18;14.33;;;12.63;;
39218;SDS011;24934;52.752;6.964;2022-10-16T00:37:44;13.32;;;11.95;;
39218;SDS011;24934;52.752;6.964;2022-10-16T00:40:10;13.15;;;11.88;;
39218;SDS011;24934;52.752;6.964;2022-10-16T00:42:35;12.57;;;10.50;;
39218;SDS011;24934;52.752;6.964;2022-10-16T00:45:02;12.93;;;11.63;;
39218;SDS011;24934;52.752;6.964;2022-10-16T00:49:59;13.48;;;11.75;;
39218;SDS011;24934;52.752;6.964;2022-10-16T00:52:32;12.50;;;11.30;;
39218;SDS011;24934;52.752;6.964;2022-10-16T00:54:59;12.50;;;11.35;;
39218;SDS011;24934;52.752;6.964;2022-10-16T00:57:26;13.05;;;11.38;;
39218;SDS011;24934;52.752;6.964;2022-10-16T00:59:52;12.43;;;11.17;;
39218;SDS011;24934;52.752;6.964;2022-10-16T01:02:19;11.37;;;10.27;;
39218;SDS011;24934;52.752;6.964;2022-10-16T01:04:46;13.82;;;10.88;;
39218;SDS011;24934;52.752;6.964;2022-10-16T01:07:16;11.07;;;10.07;;
39218;SDS011;24934;52.752;6.964;2022-10-16T01:09:51;13.47;;;12.07;;
39218;SDS011;24934;52.752;6.964;2022-10-16T01:12:23;12.33;;;11.23;;
39218;SDS011;24934;52.752;6.964;2022-10-16T01:20:32;11.17;;;10.27;;
39218;SDS011;24934;52.752;6.964;2022-10-16T01:29:02;11.57;;;10.27;;
39218;SDS011;24934;52.752;6.964;2022-10-16T01:31:33;11.77;;;10.57;;
39218;SDS011;24934;52.752;6.964;2022-10-16T01:34:05;12.03;;;10.80;;
39218;SDS011;24934;52.752;6.964;2022-10-16T01:36:40;11.38;;;10.38;;
39218;SDS011;24934;52.752;6.964;2022-10-16T01:39:10;11.98;;;9.98;;
39218;SDS011;24934;52.752;6.964;2022-10-16T01:41:41;10.80;;;9.43;;
39218;SDS011;24934;52.752;6.964;2022-10-16T01:44:11;10.87;;;9.83;;
39218;SDS011;24934;52.752;6.964;2022-10-16T01:46:46;11.67;;;9.97;;
39218;SDS011;24934;52.752;6.964;2022-10-16T01:49:14;12.47;;;9.83;;
39218;SDS011;24934;52.752;6.964;2022-10-16T01:51:43;11.37;;;10.13;;
39218;SDS011;24934;52.752;6.964;2022-10-16T01:54:11;12.20;;;11.20;;
39218;SDS011;24934;52.752;6.964;2022-10-16T01:56:40;11.00;;;10.00;;
39218;SDS011;24934;52.752;6.964;2022-10-16T01:59:11;11.10;;;10.10;;
39218;SDS011;24934;52.752;6.964;2022-10-16T02:01:40;12.43;;;10.57;;
39218;SDS011;24934;52.752;6.964;2022-10-16T02:04:15;12.60;;;11.60;;
39218;SDS011;24934;52.752;6.964;2022-10-16T02:06:43;12.10;;;10.83;;
39218;SDS011;24934;52.752;6.964;2022-10-16T02:09:09;12.10;;;10.67;;
39218;SDS011;24934;52.752;6.964;2022-10-16T02:11:35;12.50;;;11.33;;
39218;SDS011;24934;52.752;6.964;2022-10-16T02:14:02;12.13;;;10.93;;
39218;SDS011;24934;52.752;6.964;2022-10-16T02:16:34;11.37;;;10.17;;
39218;SDS011;24934;52.752;6.964;2022-10-16T02:19:01;12.20;;;11.03;;
39218;SDS011;24934;52.752;6.964;2022-10-16T02:27:45;11.40;;;10.30;;
39218;SDS011;24934;52.752;6.964;2022-10-16T02:30:02;11.83;;;10.63;;
39218;SDS011;24934;52.752;6.964;2022-10-16T02:32:41;13.20;;;12.00;;
39218;SDS011;24934;52.752;6.964;2022-10-16T02:35:09;11.60;;;10.20;;
39218;SDS011;24934;52.752;6.964;2022-10-16T02:37:39;9.90;;;9.10;;
39218;SDS011;24934;52.752;6.964;2022-10-16T02:40:06;11.13;;;10.07;;
39218;SDS011;24934;52.752;6.964;2022-10-16T02:42:33;11.40;;;10.27;;
39218;SDS011;24934;52.752;6.964;2022-10-16T02:45:01;11.63;;;10.18;;
39218;SDS011;24934;52.752;6.964;2022-10-16T02:47:27;12.13;;;11.00;;
39218;SDS011;24934;52.752;6.964;2022-10-16T02:49:52;12.20;;;11.07;;
39218;SDS011;24934;52.752;6.964;2022-10-16T02:52:18;12.23;;;11.20;;
39218;SDS011;24934;52.752;6.964;2022-10-16T02:54:43;12.00;;;10.95;;
39218;SDS011;24934;52.752;6.964;2022-10-16T02:57:09;11.57;;;10.57;;
39218;SDS011;24934;52.752;6.964;2022-10-16T02:59:35;11.57;;;10.55;;
39218;SDS011;24934;52.752;6.964;2022-10-16T03:02:00;12.53;;;11.23;;
39218;SDS011;24934;52.752;6.964;2022-10-16T03:04:26;11.37;;;10.53;;
39218;SDS011;24934;52.752;6.964;2022-10-16T03:06:51;10.70;;;9.60;;
39218;SDS011;24934;52.752;6.964;2022-10-16T03:09:17;11.23;;;10.33;;
39218;SDS011;24934;52.752;6.964;2022-10-16T03:11:43;11.80;;;10.77;;
39218;SDS011;24934;52.752;6.964;2022-10-16T03:14:08;11.33;;;10.53;;
39218;SDS011;24934;52.752;6.964;2022-10-16T03:16:34;12.10;;;11.00;;
39218;SDS011;24934;52.752;6.964;2022-10-16T03:18:59;11.57;;;10.03;;
39218;SDS011;24934;52.752;6.964;2022-10-16T03:21:25;11.00;;;9.97;;
39218;SDS011;24934;52.752;6.964;2022-10-16T03:23:51;10.43;;;9.30;;
39218;SDS011;24934;52.752;6.964;2022-10-16T03:26:17;10.63;;;9.63;;
39218;SDS011;24934;52.752;6.964;2022-10-16T03:28:42;12.37;;;9.10;;
39218;SDS011;24934;52.752;6.964;2022-10-16T03:31:08;11.50;;;10.48;;
39218;SDS011;24934;52.752;6.964;2022-10-16T03:33:36;11.23;;;10.23;;
39218;SDS011;24934;52.752;6.964;2022-10-16T03:36:02;10.33;;;9.60;;
39218;SDS011;24934;52.752;6.964;2022-10-16T03:38:28;11.23;;;10.00;;
39218;SDS011;24934;52.752;6.964;2022-10-16T03:40:53;12.25;;;11.23;;
39218;SDS011;24934;52.752;6.964;2022-10-16T03:43:19;11.83;;;10.80;;
39218;SDS011;24934;52.752;6.964;2022-10-16T03:45:44;12.80;;;11.70;;
39218;SDS011;24934;52.752;6.964;2022-10-16T03:48:10;13.43;;;12.27;;
39218;SDS011;24934;52.752;6.964;2022-10-16T03:50:36;13.15;;;11.88;;
39218;SDS011;24934;52.752;6.964;2022-10-16T03:53:02;13.75;;;12.55;;
39218;SDS011;24934;52.752;6.964;2022-10-16T03:55:28;13.10;;;11.98;;
39218;SDS011;24934;52.752;6.964;2022-10-16T03:57:54;14.13;;;12.57;;
39218;SDS011;24934;52.752;6.964;2022-10-16T04:00:20;15.23;;;13.88;;
39218;SDS011;24934;52.752;6.964;2022-10-16T04:02:45;13.77;;;12.65;;
39218;SDS011;24934;52.752;6.964;2022-10-16T04:05:11;12.98;;;11.70;;
39218;SDS011;24934;52.752;6.964;2022-10-16T04:07:36;13.82;;;12.75;;
39218;SDS011;24934;52.752;6.964;2022-10-16T04:10:03;14.35;;;13.23;;
39218;SDS011;24934;52.752;6.964;2022-10-16T04:12:31;14.13;;;12.82;;
39218;SDS011;24934;52.752;6.964;2022-10-16T04:14:57;14.30;;;12.15;;
39218;SDS011;24934;52.752;6.964;2022-10-16T04:17:25;13.48;;;12.38;;
39218;SDS011;24934;52.752;6.964;2022-10-16T04:19:51;14.13;;;12.93;;
39218;SDS011;24934;52.752;6.964;2022-10-16T04:22:17;14.57;;;13.00;;
39218;SDS011;24934;52.752;6.964;2022-10-16T04:24:42;12.60;;;11.40;;
39218;SDS011;24934;52.752;6.964;2022-10-16T04:27:08;14.25;;;12.95;;
39218;SDS011;24934;52.752;6.964;2022-10-16T04:29:33;12.50;;;11.30;;
39218;SDS011;24934;52.752;6.964;2022-10-16T04:31:59;12.05;;;11.10;;
39218;SDS011;24934;52.752;6.964;2022-10-16T04:34:24;12.80;;;11.52;;
39218;SDS011;24934;52.752;6.964;2022-10-16T04:36:50;13.73;;;10.80;;
39218;SDS011;24934;52.752;6.964;2022-10-16T04:39:16;12.02;;;10.95;;
39218;SDS011;24934;52.752;6.964;2022-10-16T04:41:41;13.68;;;12.48;;
39218;SDS011;24934;52.752;6.964;2022-10-16T04:44:07;13.53;;;12.23;;
39218;SDS011;24934;52.752;6.964;2022-10-16T04:46:33;13.33;;;12.20;;
39218;SDS011;24934;52.752;6.964;2022-10-16T04:48:58;13.20;;;12.20;;
39218;SDS011;24934;52.752;6.964;2022-10-16T04:51:26;13.30;;;12.18;;
39218;SDS011;24934;52.752;6.964;2022-10-16T04:53:53;13.40;;;12.10;;
39218;SDS011;24934;52.752;6.964;2022-10-16T04:56:19;14.98;;;13.68;;
39218;SDS011;24934;52.752;6.964;2022-10-16T04:58:46;14.50;;;13.32;;
39218;SDS011;24934;52.752;6.964;2022-10-16T05:01:12;13.20;;;12.10;;
39218;SDS011;24934;52.752;6.964;2022-10-16T05:03:38;15.55;;;14.25;;
39218;SDS011;24934;52.752;6.964;2022-10-16T05:06:07;13.65;;;12.52;;
39218;SDS011;24934;52.752;6.964;2022-10-16T05:08:33;11.73;;;10.63;;
39218;SDS011;24934;52.752;6.964;2022-10-16T05:10:58;15.43;;;11.90;;
39218;SDS011;24934;52.752;6.964;2022-10-16T05:13:24;12.50;;;11.60;;
39218;SDS011;24934;52.752;6.964;2022-10-16T05:15:50;12.00;;;10.83;;
39218;SDS011;24934;52.752;6.964;2022-10-16T05:18:16;15.37;;;13.80;;
39218;SDS011;24934;52.752;6.964;2022-10-16T05:20:42;13.10;;;11.80;;
39218;SDS011;24934;52.752;6.964;2022-10-16T05:23:07;13.03;;;11.00;;
39218;SDS011;24934;52.752;6.964;2022-10-16T05:25:35;13.47;;;12.17;;
39218;SDS011;24934;52.752;6.964;2022-10-16T05:28:01;12.30;;;11.30;;
39218;SDS011;24934;52.752;6.964;2022-10-16T05:30:27;14.57;;;13.20;;
39218;SDS011;24934;52.752;6.964;2022-10-16T05:32:52;13.27;;;12.27;;
39218;SDS011;24934;52.752;6.964;2022-10-16T05:35:21;15.30;;;14.07;;
39218;SDS011;24934;52.752;6.964;2022-10-16T05:37:47;14.10;;;12.48;;
39218;SDS011;24934;52.752;6.964;2022-10-16T05:40:12;12.95;;;11.85;;
39218;SDS011;24934;52.752;6.964;2022-10-16T05:42:39;14.33;;;12.80;;
39218;SDS011;24934;52.752;6.964;2022-10-16T05:45:05;13.10;;;11.83;;
39218;SDS011;24934;52.752;6.964;2022-10-16T05:47:32;13.33;;;11.90;;
39218;SDS011;24934;52.752;6.964;2022-10-16T05:49:58;13.17;;;11.97;;
39218;SDS011;24934;52.752;6.964;2022-10-16T05:52:23;16.53;;;12.37;;
39218;SDS011;24934;52.752;6.964;2022-10-16T05:54:49;12.10;;;11.00;;
39218;SDS011;24934;52.752;6.964;2022-10-16T05:57:15;14.20;;;13.00;;
39218;SDS011;24934;52.752;6.964;2022-10-16T05:59:40;12.13;;;11.07;;
39218;SDS011;24934;52.752;6.964;2022-10-16T06:02:07;10.23;;;9.40;;
39218;SDS011;24934;52.752;6.964;2022-10-16T06:04:37;13.07;;;10.87;;
39218;SDS011;24934;52.752;6.964;2022-10-16T06:07:02;12.63;;;11.53;;
39218;SDS011;24934;52.752;6.964;2022-10-16T06:09:28;11.13;;;10.00;;
39218;SDS011;24934;52.752;6.964;2022-10-16T06:11:54;12.50;;;11.30;;
39218;SDS011;24934;52.752;6.964;2022-10-16T06:14:19;11.63;;;10.57;;
39218;SDS011;24934;52.752;6.964;2022-10-16T06:16:50;11.13;;;10.13;;
39218;SDS011;24934;52.752;6.964;2022-10-16T06:19:16;14.97;;;11.20;;
39218;SDS011;24934;52.752;6.964;2022-10-16T06:21:42;11.23;;;10.23;;
39218;SDS011;24934;52.752;6.964;2022-10-16T06:24:08;11.13;;;10.23;;
39218;SDS011;24934;52.752;6.964;2022-10-16T06:26:34;11.40;;;10.20;;
39218;SDS011;24934;52.752;6.964;2022-10-16T06:29:00;11.90;;;10.90;;
39218;SDS011;24934;52.752;6.964;2022-10-16T06:31:26;11.30;;;10.37;;
39218;SDS011;24934;52.752;6.964;2022-10-16T06:33:55;11.57;;;10.33;;
39218;SDS011;24934;52.752;6.964;2022-10-16T06:36:21;11.77;;;10.70;;
39218;SDS011;24934;52.752;6.964;2022-10-16T06:38:48;12.93;;;11.17;;
39218;SDS011;24934;52.752;6.964;2022-10-16T06:41:18;12.52;;;11.20;;
39218;SDS011;24934;52.752;6.964;2022-10-16T06:43:44;12.25;;;10.88;;
39218;SDS011;24934;52.752;6.964;2022-10-16T06:46:11;12.23;;;11.17;;
39218;SDS011;24934;52.752;6.964;2022-10-16T06:48:46;11.27;;;10.23;;
39218;SDS011;24934;52.752;6.964;2022-10-16T06:51:15;11.60;;;10.45;;
39218;SDS011;24934;52.752;6.964;2022-10-16T06:53:43;10.80;;;9.90;;
39218;SDS011;24934;52.752;6.964;2022-10-16T06:56:12;11.63;;;10.60;;
39218;SDS011;24934;52.752;6.964;2022-10-16T06:58:39;11.40;;;10.40;;
39218;SDS011;24934;52.752;6.964;2022-10-16T07:01:05;11.07;;;10.07;;
39218;SDS011;24934;52.752;6.964;2022-10-16T07:03:32;10.60;;;9.70;;
39218;SDS011;24934;52.752;6.964;2022-10-16T07:06:01;10.55;;;9.65;;
39218;SDS011;24934;52.752;6.964;2022-10-16T07:08:30;10.63;;;9.75;;
39218;SDS011;24934;52.752;6.964;2022-10-16T07:11:00;10.73;;;9.65;;
39218;SDS011;24934;52.752;6.964;2022-10-16T07:13:27;11.37;;;9.90;;
39218;SDS011;24934;52.752;6.964;2022-10-16T07:15:53;10.38;;;9.18;;
39218;SDS011;24934;52.752;6.964;2022-10-16T07:18:19;9.80;;;8.90;;
39218;SDS011;24934;52.752;6.964;2022-10-16T07:20:44;10.32;;;9.43;;
39218;SDS011;24934;52.752;6.964;2022-10-16T07:23:10;9.90;;;9.20;;
39218;SDS011;24934;52.752;6.964;2022-10-16T07:25:36;10.20;;;9.27;;
39218;SDS011;24934;52.752;6.964;2022-10-16T07:28:01;10.25;;;9.45;;
39218;SDS011;24934;52.752;6.964;2022-10-16T07:30:27;10.13;;;9.07;;
39218;SDS011;24934;52.752;6.964;2022-10-16T07:32:52;10.45;;;9.57;;
39218;SDS011;24934;52.752;6.964;2022-10-16T07:35:18;13.07;;;10.55;;
39218;SDS011;24934;52.752;6.964;2022-10-16T07:37:44;10.38;;;9.45;;
39218;SDS011;24934;52.752;6.964;2022-10-16T07:40:11;10.15;;;9.32;;
39218;SDS011;24934;52.752;6.964;2022-10-16T07:42:36;9.82;;;9.02;;
39218;SDS011;24934;52.752;6.964;2022-10-16T07:45:02;10.88;;;9.88;;
39218;SDS011;24934;52.752;6.964;2022-10-16T07:47:28;10.75;;;9.85;;
39218;SDS011;24934;52.752;6.964;2022-10-16T07:49:54;10.40;;;9.60;;
39218;SDS011;24934;52.752;6.964;2022-10-16T07:52:19;10.68;;;9.77;;
39218;SDS011;24934;52.752;6.964;2022-10-16T07:54:45;10.15;;;9.25;;
39218;SDS011;24934;52.752;6.964;2022-10-16T07:57:10;11.15;;;10.05;;
39218;SDS011;24934;52.752;6.964;2022-10-16T07:59:36;11.20;;;10.00;;
39218;SDS011;24934;52.752;6.964;2022-10-16T08:02:02;10.32;;;9.43;;
39218;SDS011;24934;52.752;6.964;2022-10-16T08:04:27;10.77;;;9.88;;
39218;SDS011;24934;52.752;6.964;2022-10-16T08:06:53;10.25;;;9.30;;
39218;SDS011;24934;52.752;6.964;2022-10-16T08:09:19;10.82;;;9.80;;
39218;SDS011;24934;52.752;6.964;2022-10-16T08:11:45;11.02;;;9.80;;
39218;SDS011;24934;52.752;6.964;2022-10-16T08:14:10;10.00;;;9.10;;
39218;SDS011;24934;52.752;6.964;2022-10-16T08:16:36;10.93;;;9.80;;
39218;SDS011;24934;52.752;6.964;2022-10-16T08:19:01;11.30;;;10.27;;
39218;SDS011;24934;52.752;6.964;2022-10-16T08:21:27;11.20;;;10.20;;
39218;SDS011;24934;52.752;6.964;2022-10-16T08:23:53;11.05;;;9.80;;
39218;SDS011;24934;52.752;6.964;2022-10-16T08:26:20;10.32;;;9.52;;
39218;SDS011;24934;52.752;6.964;2022-10-16T08:28:45;10.13;;;9.10;;
39218;SDS011;24934;52.752;6.964;2022-10-16T08:31:14;8.75;;;7.97;;
39218;SDS011;24934;52.752;6.964;2022-10-16T08:33:41;9.18;;;8.43;;
39218;SDS011;24934;52.752;6.964;2022-10-16T08:36:11;9.88;;;8.98;;
39218;SDS011;24934;52.752;6.964;2022-10-16T08:38:36;10.73;;;8.60;;
39218;SDS011;24934;52.752;6.964;2022-10-16T08:41:10;9.20;;;8.13;;
39218;SDS011;24934;52.752;6.964;2022-10-16T08:49:42;8.15;;;7.35;;
39218;SDS011;24934;52.752;6.964;2022-10-16T08:52:12;10.02;;;8.70;;
39218;SDS011;24934;52.752;6.964;2022-10-16T08:54:41;9.00;;;8.20;;
39218;SDS011;24934;52.752;6.964;2022-10-16T08:57:20;11.45;;;7.70;;
39218;SDS011;24934;52.752;6.964;2022-10-16T08:59:47;9.05;;;8.20;;
39218;SDS011;24934;52.752;6.964;2022-10-16T09:02:19;8.50;;;7.70;;
39218;SDS011;24934;52.752;6.964;2022-10-16T09:05:03;11.93;;;8.23;;
39218;SDS011;24934;52.752;6.964;2022-10-16T09:13:36;8.80;;;8.05;;
39218;SDS011;24934;52.752;6.964;2022-10-16T09:18:39;8.88;;;8.07;;
39218;SDS011;24934;52.752;6.964;2022-10-16T09:21:23;15.18;;;8.20;;
39218;SDS011;24934;52.752;6.964;2022-10-16T09:23:53;10.32;;;9.38;;
39218;SDS011;24934;52.752;6.964;2022-10-16T09:26:24;10.07;;;9.07;;
39218;SDS011;24934;52.752;6.964;2022-10-16T09:28:51;9.75;;;8.93;;
39218;SDS011;24934;52.752;6.964;2022-10-16T09:31:19;9.75;;;8.95;;
39218;SDS011;24934;52.752;6.964;2022-10-16T09:33:48;10.65;;;9.25;;
39218;SDS011;24934;52.752;6.964;2022-10-16T09:36:20;9.77;;;8.90;;
39218;SDS011;24934;52.752;6.964;2022-10-16T09:39:00;10.07;;;9.07;;
39218;SDS011;24934;52.752;6.964;2022-10-16T09:41:30;9.65;;;8.60;;
39218;SDS011;24934;52.752;6.964;2022-10-16T09:44:03;9.25;;;7.95;;
39218;SDS011;24934;52.752;6.964;2022-10-16T09:46:38;9.55;;;8.68;;
39218;SDS011;24934;52.752;6.964;2022-10-16T09:49:26;11.40;;;9.20;;
39218;SDS011;24934;52.752;6.964;2022-10-16T09:52:02;10.32;;;8.52;;
39218;SDS011;24934;52.752;6.964;2022-10-16T09:54:36;9.93;;;8.55;;
39218;SDS011;24934;52.752;6.964;2022-10-16T09:57:10;9.75;;;8.77;;
39218;SDS011;24934;52.752;6.964;2022-10-16T09:59:45;10.23;;;9.23;;
39218;SDS011;24934;52.752;6.964;2022-10-16T10:02:12;10.38;;;9.32;;
39218;SDS011;24934;52.752;6.964;2022-10-16T10:04:41;9.90;;;8.90;;
39218;SDS011;24934;52.752;6.964;2022-10-16T10:07:17;12.23;;;10.02;;
39218;SDS011;24934;52.752;6.964;2022-10-16T10:09:46;10.75;;;8.88;;
39218;SDS011;24934;52.752;6.964;2022-10-16T10:12:23;13.10;;;9.80;;
39218;SDS011;24934;52.752;6.964;2022-10-16T10:14:51;11.00;;;9.90;;
39218;SDS011;24934;52.752;6.964;2022-10-16T10:17:24;10.20;;;9.20;;
39218;SDS011;24934;52.752;6.964;2022-10-16T10:19:53;11.85;;;10.10;;
39218;SDS011;24934;52.752;6.964;2022-10-16T10:33:01;11.20;;;9.60;;
39218;SDS011;24934;52.752;6.964;2022-10-16T10:35:49;14.02;;;9.95;;
39218;SDS011;24934;52.752;6.964;2022-10-16T10:44:07;14.77;;;10.52;;
39218;SDS011;24934;52.752;6.964;2022-10-16T10:49:39;11.90;;;10.35;;
39218;SDS011;24934;52.752;6.964;2022-10-16T11:00:21;10.00;;;8.27;;
39218;SDS011;24934;52.752;6.964;2022-10-16T11:03:19;11.40;;;8.65;;
39218;SDS011;24934;52.752;6.964;2022-10-16T11:06:20;12.45;;;9.43;;
39218;SDS011;24934;52.752;6.964;2022-10-16T11:09:00;16.38;;;9.40;;
39218;SDS011;24934;52.752;6.964;2022-10-16T11:17:27;12.32;;;8.52;;
39218;SDS011;24934;52.752;6.964;2022-10-16T11:25:27;12.02;;;9.82;;
39218;SDS011;24934;52.752;6.964;2022-10-16T11:30:29;13.30;;;10.32;;
39218;SDS011;24934;52.752;6.964;2022-10-16T11:35:49;14.65;;;8.80;;
39218;SDS011;24934;52.752;6.964;2022-10-16T11:43:52;13.25;;;9.15;;
39218;SDS011;24934;52.752;6.964;2022-10-16T11:46:38;11.98;;;9.25;;
39218;SDS011;24934;52.752;6.964;2022-10-16T11:49:12;14.35;;;9.60;;
39218;SDS011;24934;52.752;6.964;2022-10-16T11:54:24;11.52;;;9.27;;
39218;SDS011;24934;52.752;6.964;2022-10-16T11:57:12;9.73;;;7.85;;
39218;SDS011;24934;52.752;6.964;2022-10-16T11:59:51;12.27;;;8.70;;
39218;SDS011;24934;52.752;6.964;2022-10-16T12:02:30;12.02;;;9.48;;
39218;SDS011;24934;52.752;6.964;2022-10-16T12:05:14;15.63;;;9.50;;
39218;SDS011;24934;52.752;6.964;2022-10-16T12:10:28;12.02;;;9.30;;
39218;SDS011;24934;52.752;6.964;2022-10-16T12:12:56;14.23;;;9.65;;
39218;SDS011;24934;52.752;6.964;2022-10-16T12:15:26;12.93;;;9.30;;
39218;SDS011;24934;52.752;6.964;2022-10-16T12:17:53;12.13;;;9.55;;
39218;SDS011;24934;52.752;6.964;2022-10-16T12:20:30;11.60;;;9.80;;
39218;SDS011;24934;52.752;6.964;2022-10-16T12:23:04;12.40;;;9.40;;
39218;SDS011;24934;52.752;6.964;2022-10-16T12:25:34;16.10;;;9.68;;
39218;SDS011;24934;52.752;6.964;2022-10-16T12:28:06;10.48;;;9.38;;
39218;SDS011;24934;52.752;6.964;2022-10-16T12:30:55;13.43;;;9.85;;
39218;SDS011;24934;52.752;6.964;2022-10-16T12:33:26;11.43;;;9.52;;
39218;SDS011;24934;52.752;6.964;2022-10-16T12:35:54;13.90;;;9.63;;
39218;SDS011;24934;52.752;6.964;2022-10-16T12:41:10;13.02;;;9.75;;
39218;SDS011;24934;52.752;6.964;2022-10-16T12:48:32;12.57;;;9.20;;
39218;SDS011;24934;52.752;6.964;2022-10-16T12:51:09;12.65;;;9.38;;
39218;SDS011;24934;52.752;6.964;2022-10-16T12:53:36;16.25;;;9.35;;
39218;SDS011;24934;52.752;6.964;2022-10-16T12:56:09;12.43;;;9.52;;
39218;SDS011;24934;52.752;6.964;2022-10-16T12:58:44;10.07;;;8.60;;
39218;SDS011;24934;52.752;6.964;2022-10-16T13:04:08;15.27;;;9.60;;
39218;SDS011;24934;52.752;6.964;2022-10-16T13:06:55;15.65;;;9.00;;
39218;SDS011;24934;52.752;6.964;2022-10-16T13:09:50;12.82;;;7.95;;
39218;SDS011;24934;52.752;6.964;2022-10-16T13:20:50;12.40;;;10.15;;
39218;SDS011;24934;52.752;6.964;2022-10-16T13:26:29;13.57;;;10.40;;
39218;SDS011;24934;52.752;6.964;2022-10-16T13:29:20;15.73;;;10.52;;
39218;SDS011;24934;52.752;6.964;2022-10-16T13:31:47;14.88;;;10.88;;
39218;SDS011;24934;52.752;6.964;2022-10-16T13:34:15;11.68;;;9.60;;
39218;SDS011;24934;52.752;6.964;2022-10-16T13:36:43;12.25;;;10.50;;
39218;SDS011;24934;52.752;6.964;2022-10-16T13:44:48;12.27;;;9.98;;
39218;SDS011;24934;52.752;6.964;2022-10-16T13:47:22;15.45;;;10.40;;
39218;SDS011;24934;52.752;6.964;2022-10-16T13:50:06;13.35;;;10.85;;
39218;SDS011;24934;52.752;6.964;2022-10-16T13:52:36;12.50;;;10.02;;
39218;SDS011;24934;52.752;6.964;2022-10-16T13:55:12;14.27;;;10.38;;
39218;SDS011;24934;52.752;6.964;2022-10-16T13:57:42;12.20;;;9.25;;
39218;SDS011;24934;52.752;6.964;2022-10-16T14:00:22;10.57;;;9.48;;
39218;SDS011;24934;52.752;6.964;2022-10-16T14:02:55;12.32;;;9.35;;
39218;SDS011;24934;52.752;6.964;2022-10-16T14:05:25;13.00;;;8.68;;
39218;SDS011;24934;52.752;6.964;2022-10-16T14:07:51;11.57;;;8.68;;
39218;SDS011;24934;52.752;6.964;2022-10-16T14:10:25;11.85;;;9.18;;
39218;SDS011;24934;52.752;6.964;2022-10-16T14:12:58;11.35;;;8.85;;
39218;SDS011;24934;52.752;6.964;2022-10-16T14:15:29;10.55;;;9.13;;
39218;SDS011;24934;52.752;6.964;2022-10-16T14:17:56;11.13;;;8.90;;
39218;SDS011;24934;52.752;6.964;2022-10-16T14:20:32;12.32;;;9.48;;
39218;SDS011;24934;52.752;6.964;2022-10-16T14:23:18;13.35;;;9.20;;
39218;SDS011;24934;52.752;6.964;2022-10-16T14:25:47;13.45;;;8.57;;
39218;SDS011;24934;52.752;6.964;2022-10-16T14:30:48;12.02;;;8.70;;
39218;SDS011;24934;52.752;6.964;2022-10-16T14:33:25;10.27;;;9.18;;
39218;SDS011;24934;52.752;6.964;2022-10-16T14:38:36;12.35;;;8.00;;
39218;SDS011;24934;52.752;6.964;2022-10-16T14:41:04;10.07;;;8.80;;
39218;SDS011;24934;52.752;6.964;2022-10-16T14:43:34;11.82;;;8.57;;
39218;SDS011;24934;52.752;6.964;2022-10-16T14:46:14;11.98;;;9.60;;
39218;SDS011;24934;52.752;6.964;2022-10-16T14:48:46;12.55;;;9.50;;
39218;SDS011;24934;52.752;6.964;2022-10-16T14:51:14;10.05;;;8.70;;
39218;SDS011;24934;52.752;6.964;2022-10-16T14:53:40;11.35;;;9.23;;
39218;SDS011;24934;52.752;6.964;2022-10-16T14:56:09;11.77;;;9.45;;
39218;SDS011;24934;52.752;6.964;2022-10-16T14:58:44;10.73;;;9.68;;
39218;SDS011;24934;52.752;6.964;2022-10-16T15:01:10;11.57;;;10.40;;
39218;SDS011;24934;52.752;6.964;2022-10-16T15:03:36;11.52;;;10.32;;
39218;SDS011;24934;52.752;6.964;2022-10-16T15:06:03;11.32;;;9.13;;
39218;SDS011;24934;52.752;6.964;2022-10-16T15:08:28;10.77;;;9.60;;
39218;SDS011;24934;52.752;6.964;2022-10-16T15:10:54;16.42;;;9.75;;
39218;SDS011;24934;52.752;6.964;2022-10-16T15:13:20;10.15;;;9.25;;
39218;SDS011;24934;52.752;6.964;2022-10-16T15:15:46;12.23;;;9.35;;
39218;SDS011;24934;52.752;6.964;2022-10-16T15:18:17;13.45;;;8.75;;
39218;SDS011;24934;52.752;6.964;2022-10-16T15:20:47;13.43;;;8.90;;
39218;SDS011;24934;52.752;6.964;2022-10-16T15:23:18;13.93;;;9.05;;
39218;SDS011;24934;52.752;6.964;2022-10-16T15:25:46;14.02;;;8.32;;
39218;SDS011;24934;52.752;6.964;2022-10-16T15:28:14;8.52;;;7.43;;
39218;SDS011;24934;52.752;6.964;2022-10-16T15:30:41;12.55;;;7.88;;
39218;SDS011;24934;52.752;6.964;2022-10-16T15:33:11;11.38;;;8.15;;
39218;SDS011;24934;52.752;6.964;2022-10-16T15:35:39;10.82;;;8.05;;
39218;SDS011;24934;52.752;6.964;2022-10-16T15:38:05;8.68;;;6.82;;
39218;SDS011;24934;52.752;6.964;2022-10-16T15:40:30;9.75;;;8.05;;
39218;SDS011;24934;52.752;6.964;2022-10-16T15:42:56;14.93;;;8.15;;
39218;SDS011;24934;52.752;6.964;2022-10-16T15:45:22;11.32;;;7.70;;
39218;SDS011;24934;52.752;6.964;2022-10-16T15:47:47;15.13;;;7.68;;
39218;SDS011;24934;52.752;6.964;2022-10-16T15:50:14;12.70;;;8.45;;
39218;SDS011;24934;52.752;6.964;2022-10-16T15:52:40;11.40;;;8.07;;
39218;SDS011;24934;52.752;6.964;2022-10-16T15:55:07;11.02;;;7.70;;
39218;SDS011;24934;52.752;6.964;2022-10-16T15:57:33;15.75;;;7.60;;
39218;SDS011;24934;52.752;6.964;2022-10-16T15:59:59;12.20;;;8.10;;
39218;SDS011;24934;52.752;6.964;2022-10-16T16:02:25;16.35;;;9.25;;
39218;SDS011;24934;52.752;6.964;2022-10-16T16:04:50;11.30;;;8.23;;
39218;SDS011;24934;52.752;6.964;2022-10-16T16:07:16;11.93;;;8.85;;
39218;SDS011;24934;52.752;6.964;2022-10-16T16:09:44;12.90;;;8.52;;
39218;SDS011;24934;52.752;6.964;2022-10-16T16:12:10;12.70;;;9.40;;
39218;SDS011;24934;52.752;6.964;2022-10-16T16:14:35;13.70;;;9.10;;
39218;SDS011;24934;52.752;6.964;2022-10-16T16:17:01;15.00;;;9.18;;
39218;SDS011;24934;52.752;6.964;2022-10-16T16:19:27;11.43;;;9.35;;
39218;SDS011;24934;52.752;6.964;2022-10-16T16:21:52;13.88;;;10.43;;
39218;SDS011;24934;52.752;6.964;2022-10-16T16:24:18;13.63;;;9.65;;
39218;SDS011;24934;52.752;6.964;2022-10-16T16:26:44;15.30;;;9.93;;
39218;SDS011;24934;52.752;6.964;2022-10-16T16:29:13;13.45;;;9.85;;
39218;SDS011;24934;52.752;6.964;2022-10-16T16:31:40;14.93;;;8.98;;
39218;SDS011;24934;52.752;6.964;2022-10-16T16:34:06;11.82;;;9.05;;
39218;SDS011;24934;52.752;6.964;2022-10-16T16:36:32;19.48;;;9.50;;
39218;SDS011;24934;52.752;6.964;2022-10-16T16:38:58;14.18;;;8.70;;
39218;SDS011;24934;52.752;6.964;2022-10-16T16:41:25;16.15;;;9.73;;